sensor_id;sensor_type;location;lat;lon;timestamp;temperature;humidity
24468;DHT22;12634;50.852;5.676;2023-08-20T00:01:12;19.70;99.90
24468;DHT22;12634;50.852;5.676;2023-08-20T00:03:40;19.80;99.90
24468;DHT22;12634;50.852;5.676;2023-08-20T00:06:10;19.70;99.90
24468;DHT22;12634;50.852;5.676;2023-08-20T00:08:37;19.60;99.90
24468;DHT22;12634;50.852;5.676;2023-08-20T00:11:04;19.50;99.90
24468;DHT22;12634;50.852;5.676;2023-08-20T00:13:33;19.50;99.90
24468;DHT22;12634;50.852;5.676;2023-08-20T00:16:00;19.60;99.90
24468;DHT22;12634;50.852;5.676;2023-08-20T00:18:29;19.80;99.90
24468;DHT22;12634;50.852;5.676;2023-08-20T00:20:56;20.00;99.90
24468;DHT22;12634;50.852;5.676;2023-08-20T00:23:24;20.10;99.90
24468;DHT22;12634;50.852;5.676;2023-08-20T00:25:52;20.10;99.90
24468;DHT22;12634;50.852;5.676;2023-08-20T00:28:20;19.90;99.90
24468;DHT22;12634;50.852;5.676;2023-08-20T00:30:49;19.70;99.90
24468;DHT22;12634;50.852;5.676;2023-08-20T00:33:16;19.70;99.90
24468;DHT22;12634;50.852;5.676;2023-08-20T00:35:44;19.60;99.90
24468;DHT22;12634;50.852;5.676;2023-08-20T00:38:11;19.80;99.90
24468;DHT22;12634;50.852;5.676;2023-08-20T00:40:38;19.70;99.90
24468;DHT22;12634;50.852;5.676;2023-08-20T00:43:05;19.60;99.90
24468;DHT22;12634;50.852;5.676;2023-08-20T00:45:32;19.50;99.90
24468;DHT22;12634;50.852;5.676;2023-08-20T00:48:02;19.40;99.90
24468;DHT22;12634;50.852;5.676;2023-08-20T00:50:30;19.30;99.90
24468;DHT22;12634;50.852;5.676;2023-08-20T00:52:57;19.20;99.90
24468;DHT22;12634;50.852;5.676;2023-08-20T00:55:25;19.20;99.90
24468;DHT22;12634;50.852;5.676;2023-08-20T00:57:52;19.20;99.90
24468;DHT22;12634;50.852;5.676;2023-08-20T01:00:19;19.20;99.90
24468;DHT22;12634;50.852;5.676;2023-08-20T01:02:47;19.10;99.90
24468;DHT22;12634;50.852;5.676;2023-08-20T01:05:16;19.20;99.90
24468;DHT22;12634;50.852;5.676;2023-08-20T01:07:54;19.30;99.90
24468;DHT22;12634;50.852;5.676;2023-08-20T01:10:29;19.30;99.90
24468;DHT22;12634;50.852;5.676;2023-08-20T01:12:58;19.20;99.90
24468;DHT22;12634;50.852;5.676;2023-08-20T01:15:25;19.10;99.90
24468;DHT22;12634;50.852;5.676;2023-08-20T01:17:52;19.40;99.90
24468;DHT22;12634;50.852;5.676;2023-08-20T01:20:24;19.20;99.90
24468;DHT22;12634;50.852;5.676;2023-08-20T01:23:13;19.20;99.90
24468;DHT22;12634;50.852;5.676;2023-08-20T01:25:55;19.30;99.90
24468;DHT22;12634;50.852;5.676;2023-08-20T01:28:28;19.30;99.90
24468;DHT22;12634;50.852;5.676;2023-08-20T01:30:57;19.30;99.90
24468;DHT22;12634;50.852;5.676;2023-08-20T01:33:24;19.30;99.90
24468;DHT22;12634;50.852;5.676;2023-08-20T01:35:52;19.30;99.90
24468;DHT22;12634;50.852;5.676;2023-08-20T01:38:20;19.20;99.90
24468;DHT22;12634;50.852;5.676;2023-08-20T01:40:47;19.30;99.90
24468;DHT22;12634;50.852;5.676;2023-08-20T01:43:14;19.30;99.90
24468;DHT22;12634;50.852;5.676;2023-08-20T01:45:43;19.30;99.90
24468;DHT22;12634;50.852;5.676;2023-08-20T01:48:10;19.50;99.90
24468;DHT22;12634;50.852;5.676;2023-08-20T01:50:39;19.40;99.90
24468;DHT22;12634;50.852;5.676;2023-08-20T01:53:06;19.40;99.90
24468;DHT22;12634;50.852;5.676;2023-08-20T01:55:33;19.40;99.90
24468;DHT22;12634;50.852;5.676;2023-08-20T01:58:00;19.40;99.90
24468;DHT22;12634;50.852;5.676;2023-08-20T02:00:28;19.30;99.90
24468;DHT22;12634;50.852;5.676;2023-08-20T02:02:57;19.20;99.90
24468;DHT22;12634;50.852;5.676;2023-08-20T02:05:25;19.20;99.90
24468;DHT22;12634;50.852;5.676;2023-08-20T02:07:53;19.00;99.90
24468;DHT22;12634;50.852;5.676;2023-08-20T02:10:20;18.90;99.90
24468;DHT22;12634;50.852;5.676;2023-08-20T02:12:48;18.80;99.90
24468;DHT22;12634;50.852;5.676;2023-08-20T02:15:15;18.80;99.90
24468;DHT22;12634;50.852;5.676;2023-08-20T02:17:42;18.80;99.90
24468;DHT22;12634;50.852;5.676;2023-08-20T02:20:11;18.90;99.90
24468;DHT22;12634;50.852;5.676;2023-08-20T02:22:38;18.80;99.90
24468;DHT22;12634;50.852;5.676;2023-08-20T02:25:06;18.80;99.90
24468;DHT22;12634;50.852;5.676;2023-08-20T02:27:33;18.80;99.90
24468;DHT22;12634;50.852;5.676;2023-08-20T02:30:00;18.80;99.90
24468;DHT22;12634;50.852;5.676;2023-08-20T02:32:27;18.90;99.90
24468;DHT22;12634;50.852;5.676;2023-08-20T02:34:55;18.90;99.90
24468;DHT22;12634;50.852;5.676;2023-08-20T02:37:24;19.00;99.90
24468;DHT22;12634;50.852;5.676;2023-08-20T02:39:51;19.00;99.90
24468;DHT22;12634;50.852;5.676;2023-08-20T02:42:18;18.90;99.90
24468;DHT22;12634;50.852;5.676;2023-08-20T02:44:45;18.90;99.90
24468;DHT22;12634;50.852;5.676;2023-08-20T02:47:12;18.90;99.90
24468;DHT22;12634;50.852;5.676;2023-08-20T02:49:40;18.80;99.90
24468;DHT22;12634;50.852;5.676;2023-08-20T02:52:07;18.90;99.90
24468;DHT22;12634;50.852;5.676;2023-08-20T02:54:35;18.90;99.90
24468;DHT22;12634;50.852;5.676;2023-08-20T02:57:03;18.80;99.90
24468;DHT22;12634;50.852;5.676;2023-08-20T02:59:30;18.90;99.90
24468;DHT22;12634;50.852;5.676;2023-08-20T03:01:57;18.80;99.90
24468;DHT22;12634;50.852;5.676;2023-08-20T03:04:24;18.90;99.90
24468;DHT22;12634;50.852;5.676;2023-08-20T03:06:51;18.80;99.90
24468;DHT22;12634;50.852;5.676;2023-08-20T03:09:18;18.90;99.90
24468;DHT22;12634;50.852;5.676;2023-08-20T03:11:47;18.90;99.90
24468;DHT22;12634;50.852;5.676;2023-08-20T03:14:15;18.90;99.90
24468;DHT22;12634;50.852;5.676;2023-08-20T03:16:42;18.90;99.90
24468;DHT22;12634;50.852;5.676;2023-08-20T03:19:09;18.80;99.90
24468;DHT22;12634;50.852;5.676;2023-08-20T03:21:36;18.90;99.90
24468;DHT22;12634;50.852;5.676;2023-08-20T03:24:04;18.80;99.90
24468;DHT22;12634;50.852;5.676;2023-08-20T03:26:32;18.80;99.90
24468;DHT22;12634;50.852;5.676;2023-08-20T03:29:00;18.80;99.90
24468;DHT22;12634;50.852;5.676;2023-08-20T03:31:29;18.80;99.90
24468;DHT22;12634;50.852;5.676;2023-08-20T03:33:56;18.70;99.90
24468;DHT22;12634;50.852;5.676;2023-08-20T03:36:23;18.90;99.90
24468;DHT22;12634;50.852;5.676;2023-08-20T03:38:50;19.00;99.90
24468;DHT22;12634;50.852;5.676;2023-08-20T03:41:17;19.10;99.90
24468;DHT22;12634;50.852;5.676;2023-08-20T03:43:45;19.10;99.90
24468;DHT22;12634;50.852;5.676;2023-08-20T03:46:13;19.00;99.90
24468;DHT22;12634;50.852;5.676;2023-08-20T03:48:40;18.90;99.90
24468;DHT22;12634;50.852;5.676;2023-08-20T03:51:07;18.90;99.90
24468;DHT22;12634;50.852;5.676;2023-08-20T03:53:35;19.00;99.90
24468;DHT22;12634;50.852;5.676;2023-08-20T03:56:02;19.10;99.90
24468;DHT22;12634;50.852;5.676;2023-08-20T03:58:29;19.00;99.90
24468;DHT22;12634;50.852;5.676;2023-08-20T04:00:56;19.00;99.90
24468;DHT22;12634;50.852;5.676;2023-08-20T04:03:25;18.90;99.90
24468;DHT22;12634;50.852;5.676;2023-08-20T04:05:52;19.00;99.90
24468;DHT22;12634;50.852;5.676;2023-08-20T04:08:19;19.00;99.90
24468;DHT22;12634;50.852;5.676;2023-08-20T04:10:46;18.80;99.90
24468;DHT22;12634;50.852;5.676;2023-08-20T04:13:13;19.00;99.90
24468;DHT22;12634;50.852;5.676;2023-08-20T04:15:41;19.10;99.90
24468;DHT22;12634;50.852;5.676;2023-08-20T04:18:09;19.20;99.90
24468;DHT22;12634;50.852;5.676;2023-08-20T04:20:37;19.20;99.90
24468;DHT22;12634;50.852;5.676;2023-08-20T04:23:04;19.20;99.90
24468;DHT22;12634;50.852;5.676;2023-08-20T04:25:32;19.00;99.90
24468;DHT22;12634;50.852;5.676;2023-08-20T04:27:59;19.10;99.90
24468;DHT22;12634;50.852;5.676;2023-08-20T04:30:26;19.10;99.90
24468;DHT22;12634;50.852;5.676;2023-08-20T04:32:53;19.10;99.90
24468;DHT22;12634;50.852;5.676;2023-08-20T04:35:21;19.10;99.90
24468;DHT22;12634;50.852;5.676;2023-08-20T04:37:49;19.00;99.90
24468;DHT22;12634;50.852;5.676;2023-08-20T04:40:17;19.10;99.90
24468;DHT22;12634;50.852;5.676;2023-08-20T04:42:44;19.00;99.90
24468;DHT22;12634;50.852;5.676;2023-08-20T04:45:11;18.90;99.90
24468;DHT22;12634;50.852;5.676;2023-08-20T04:47:39;18.90;99.90
24468;DHT22;12634;50.852;5.676;2023-08-20T04:50:06;19.00;99.90
24468;DHT22;12634;50.852;5.676;2023-08-20T04:52:34;19.10;99.90
24468;DHT22;12634;50.852;5.676;2023-08-20T04:55:03;19.10;99.90
24468;DHT22;12634;50.852;5.676;2023-08-20T04:57:30;19.10;99.90
24468;DHT22;12634;50.852;5.676;2023-08-20T04:59:57;19.20;99.90
24468;DHT22;12634;50.852;5.676;2023-08-20T05:02:24;19.20;99.90
24468;DHT22;12634;50.852;5.676;2023-08-20T05:04:52;19.30;99.90
24468;DHT22;12634;50.852;5.676;2023-08-20T05:07:19;19.40;99.90
24468;DHT22;12634;50.852;5.676;2023-08-20T05:09:46;19.40;99.90
24468;DHT22;12634;50.852;5.676;2023-08-20T05:12:15;19.40;99.90
24468;DHT22;12634;50.852;5.676;2023-08-20T05:14:42;19.50;99.90
24468;DHT22;12634;50.852;5.676;2023-08-20T05:17:09;19.50;99.90
24468;DHT22;12634;50.852;5.676;2023-08-20T05:19:36;19.50;99.90
24468;DHT22;12634;50.852;5.676;2023-08-20T05:22:03;19.50;99.90
24468;DHT22;12634;50.852;5.676;2023-08-20T05:24:30;19.60;99.90
24468;DHT22;12634;50.852;5.676;2023-08-20T05:27:06;19.70;99.90
24468;DHT22;12634;50.852;5.676;2023-08-20T05:29:35;19.80;99.90
24468;DHT22;12634;50.852;5.676;2023-08-20T05:32:02;19.90;99.90
24468;DHT22;12634;50.852;5.676;2023-08-20T05:34:29;19.90;99.90
24468;DHT22;12634;50.852;5.676;2023-08-20T05:36:57;20.10;99.90
24468;DHT22;12634;50.852;5.676;2023-08-20T05:39:24;20.10;99.90
24468;DHT22;12634;50.852;5.676;2023-08-20T05:41:51;20.30;99.90
24468;DHT22;12634;50.852;5.676;2023-08-20T05:44:18;20.50;99.90
24468;DHT22;12634;50.852;5.676;2023-08-20T05:46:47;20.50;99.90
24468;DHT22;12634;50.852;5.676;2023-08-20T05:49:15;20.50;99.90
24468;DHT22;12634;50.852;5.676;2023-08-20T05:51:42;20.70;99.90
24468;DHT22;12634;50.852;5.676;2023-08-20T05:54:09;20.80;99.90
24468;DHT22;12634;50.852;5.676;2023-08-20T05:56:37;20.80;99.90
24468;DHT22;12634;50.852;5.676;2023-08-20T05:59:04;20.90;99.90
24468;DHT22;12634;50.852;5.676;2023-08-20T06:01:31;21.00;99.90
24468;DHT22;12634;50.852;5.676;2023-08-20T06:04:00;21.00;99.90
24468;DHT22;12634;50.852;5.676;2023-08-20T06:06:28;20.80;99.90
24468;DHT22;12634;50.852;5.676;2023-08-20T06:08:55;20.70;99.90
24468;DHT22;12634;50.852;5.676;2023-08-20T06:11:22;20.90;99.90
24468;DHT22;12634;50.852;5.676;2023-08-20T06:13:49;21.10;99.90
24468;DHT22;12634;50.852;5.676;2023-08-20T06:16:16;20.60;99.90
24468;DHT22;12634;50.852;5.676;2023-08-20T06:18:43;20.60;99.90
24468;DHT22;12634;50.852;5.676;2023-08-20T06:21:12;20.40;99.90
24468;DHT22;12634;50.852;5.676;2023-08-20T06:23:40;20.50;99.90
24468;DHT22;12634;50.852;5.676;2023-08-20T06:26:07;20.50;99.90
24468;DHT22;12634;50.852;5.676;2023-08-20T06:28:34;20.90;99.90
24468;DHT22;12634;50.852;5.676;2023-08-20T06:31:01;21.40;99.90
24468;DHT22;12634;50.852;5.676;2023-08-20T06:33:29;21.80;99.90
24468;DHT22;12634;50.852;5.676;2023-08-20T06:35:56;21.80;99.90
24468;DHT22;12634;50.852;5.676;2023-08-20T06:38:24;21.90;99.90
24468;DHT22;12634;50.852;5.676;2023-08-20T06:40:52;22.70;99.90
24468;DHT22;12634;50.852;5.676;2023-08-20T06:43:19;23.70;99.90
24468;DHT22;12634;50.852;5.676;2023-08-20T06:45:46;24.50;99.90
24468;DHT22;12634;50.852;5.676;2023-08-20T06:48:13;24.70;99.90
24468;DHT22;12634;50.852;5.676;2023-08-20T06:50:42;24.00;99.90
24468;DHT22;12634;50.852;5.676;2023-08-20T06:53:09;24.20;99.90
24468;DHT22;12634;50.852;5.676;2023-08-20T06:55:37;24.10;99.90
24468;DHT22;12634;50.852;5.676;2023-08-20T06:58:05;23.60;99.90
24468;DHT22;12634;50.852;5.676;2023-08-20T07:00:32;23.50;99.90
24468;DHT22;12634;50.852;5.676;2023-08-20T07:02:59;23.50;99.90
24468;DHT22;12634;50.852;5.676;2023-08-20T07:05:26;24.10;99.90
24468;DHT22;12634;50.852;5.676;2023-08-20T07:07:53;24.60;99.90
24468;DHT22;12634;50.852;5.676;2023-08-20T07:10:20;24.50;99.90
24468;DHT22;12634;50.852;5.676;2023-08-20T07:12:49;24.60;99.90
24468;DHT22;12634;50.852;5.676;2023-08-20T07:15:16;25.00;99.90
24468;DHT22;12634;50.852;5.676;2023-08-20T07:17:43;24.90;99.90
24468;DHT22;12634;50.852;5.676;2023-08-20T07:20:11;24.60;99.90
24468;DHT22;12634;50.852;5.676;2023-08-20T07:22:38;25.10;99.90
24468;DHT22;12634;50.852;5.676;2023-08-20T07:25:05;25.80;99.90
24468;DHT22;12634;50.852;5.676;2023-08-20T07:27:33;26.50;99.90
24468;DHT22;12634;50.852;5.676;2023-08-20T07:30:02;27.00;99.90
24468;DHT22;12634;50.852;5.676;2023-08-20T07:32:29;27.40;99.90
24468;DHT22;12634;50.852;5.676;2023-08-20T07:34:57;27.00;99.90
24468;DHT22;12634;50.852;5.676;2023-08-20T07:37:24;27.10;99.90
24468;DHT22;12634;50.852;5.676;2023-08-20T07:39:51;27.40;99.90
24468;DHT22;12634;50.852;5.676;2023-08-20T07:42:18;27.10;99.90
24468;DHT22;12634;50.852;5.676;2023-08-20T07:44:46;26.50;99.90
24468;DHT22;12634;50.852;5.676;2023-08-20T07:47:14;26.10;99.90
24468;DHT22;12634;50.852;5.676;2023-08-20T07:49:41;25.90;99.90
24468;DHT22;12634;50.852;5.676;2023-08-20T07:52:09;26.70;99.90
24468;DHT22;12634;50.852;5.676;2023-08-20T07:54:36;27.80;99.90
24468;DHT22;12634;50.852;5.676;2023-08-20T07:57:03;28.40;99.90
24468;DHT22;12634;50.852;5.676;2023-08-20T07:59:30;28.90;99.90
24468;DHT22;12634;50.852;5.676;2023-08-20T08:01:57;27.70;99.90
24468;DHT22;12634;50.852;5.676;2023-08-20T08:04:28;26.70;99.90
24468;DHT22;12634;50.852;5.676;2023-08-20T08:06:55;27.70;99.90
24468;DHT22;12634;50.852;5.676;2023-08-20T08:09:26;28.40;99.90
24468;DHT22;12634;50.852;5.676;2023-08-20T08:11:54;28.70;99.90
24468;DHT22;12634;50.852;5.676;2023-08-20T08:14:21;28.00;99.90
24468;DHT22;12634;50.852;5.676;2023-08-20T08:16:49;27.40;99.90
24468;DHT22;12634;50.852;5.676;2023-08-20T08:19:17;27.40;99.90
24468;DHT22;12634;50.852;5.676;2023-08-20T08:21:47;28.50;99.90
24468;DHT22;12634;50.852;5.676;2023-08-20T08:24:15;29.20;99.90
24468;DHT22;12634;50.852;5.676;2023-08-20T08:26:42;28.90;99.90
24468;DHT22;12634;50.852;5.676;2023-08-20T08:29:10;28.60;99.90
24468;DHT22;12634;50.852;5.676;2023-08-20T08:31:37;28.50;99.90
24468;DHT22;12634;50.852;5.676;2023-08-20T08:34:04;28.60;99.90
24468;DHT22;12634;50.852;5.676;2023-08-20T08:36:32;28.70;99.90
24468;DHT22;12634;50.852;5.676;2023-08-20T08:39:00;28.90;99.90
24468;DHT22;12634;50.852;5.676;2023-08-20T08:41:28;28.60;99.90
24468;DHT22;12634;50.852;5.676;2023-08-20T08:43:56;28.10;99.90
24468;DHT22;12634;50.852;5.676;2023-08-20T08:46:24;26.70;99.90
24468;DHT22;12634;50.852;5.676;2023-08-20T08:48:52;27.30;99.90
24468;DHT22;12634;50.852;5.676;2023-08-20T08:51:20;28.20;99.90
24468;DHT22;12634;50.852;5.676;2023-08-20T08:53:47;29.00;99.90
24468;DHT22;12634;50.852;5.676;2023-08-20T08:56:16;29.20;99.90
24468;DHT22;12634;50.852;5.676;2023-08-20T08:58:43;29.50;99.90
24468;DHT22;12634;50.852;5.676;2023-08-20T09:01:10;28.90;99.90
24468;DHT22;12634;50.852;5.676;2023-08-20T09:03:38;28.30;99.90
24468;DHT22;12634;50.852;5.676;2023-08-20T09:06:08;27.60;99.90
24468;DHT22;12634;50.852;5.676;2023-08-20T09:08:36;27.90;99.90
24468;DHT22;12634;50.852;5.676;2023-08-20T09:11:03;28.20;99.90
24468;DHT22;12634;50.852;5.676;2023-08-20T09:13:36;28.10;99.90
24468;DHT22;12634;50.852;5.676;2023-08-20T09:16:04;28.30;99.90
24468;DHT22;12634;50.852;5.676;2023-08-20T09:18:32;29.20;99.90
24468;DHT22;12634;50.852;5.676;2023-08-20T09:21:00;28.60;99.90
24468;DHT22;12634;50.852;5.676;2023-08-20T09:23:29;29.40;99.90
24468;DHT22;12634;50.852;5.676;2023-08-20T09:25:57;29.60;99.90
24468;DHT22;12634;50.852;5.676;2023-08-20T09:28:24;30.50;99.90
24468;DHT22;12634;50.852;5.676;2023-08-20T09:30:57;31.30;99.90
24468;DHT22;12634;50.852;5.676;2023-08-20T09:33:25;30.10;99.90
24468;DHT22;12634;50.852;5.676;2023-08-20T09:35:53;29.90;99.90
24468;DHT22;12634;50.852;5.676;2023-08-20T09:38:21;30.50;99.90
24468;DHT22;12634;50.852;5.676;2023-08-20T09:40:50;30.20;99.90
24468;DHT22;12634;50.852;5.676;2023-08-20T09:43:18;30.50;99.90
24468;DHT22;12634;50.852;5.676;2023-08-20T09:45:47;30.20;99.90
24468;DHT22;12634;50.852;5.676;2023-08-20T09:48:18;29.90;99.90
24468;DHT22;12634;50.852;5.676;2023-08-20T09:50:47;29.10;99.90
24468;DHT22;12634;50.852;5.676;2023-08-20T09:53:22;29.20;99.90
24468;DHT22;12634;50.852;5.676;2023-08-20T09:55:51;30.30;99.90
24468;DHT22;12634;50.852;5.676;2023-08-20T09:58:20;30.20;99.90
24468;DHT22;12634;50.852;5.676;2023-08-20T10:00:51;29.90;99.90
24468;DHT22;12634;50.852;5.676;2023-08-20T10:03:22;29.50;99.90
24468;DHT22;12634;50.852;5.676;2023-08-20T10:05:50;29.50;99.90
24468;DHT22;12634;50.852;5.676;2023-08-20T10:08:17;29.60;99.90
24468;DHT22;12634;50.852;5.676;2023-08-20T10:10:45;28.60;99.90
24468;DHT22;12634;50.852;5.676;2023-08-20T10:13:13;28.00;99.90
24468;DHT22;12634;50.852;5.676;2023-08-20T10:15:41;29.10;99.90
24468;DHT22;12634;50.852;5.676;2023-08-20T10:18:08;29.10;99.90
24468;DHT22;12634;50.852;5.676;2023-08-20T10:20:38;28.50;99.90
24468;DHT22;12634;50.852;5.676;2023-08-20T10:23:06;29.30;99.90
24468;DHT22;12634;50.852;5.676;2023-08-20T10:25:41;29.10;99.90
24468;DHT22;12634;50.852;5.676;2023-08-20T10:28:14;29.10;99.90
24468;DHT22;12634;50.852;5.676;2023-08-20T10:31:02;28.60;99.90
24468;DHT22;12634;50.852;5.676;2023-08-20T10:33:30;27.90;99.90
24468;DHT22;12634;50.852;5.676;2023-08-20T10:36:07;27.50;99.90
24468;DHT22;12634;50.852;5.676;2023-08-20T10:38:36;27.40;99.90
24468;DHT22;12634;50.852;5.676;2023-08-20T10:41:06;28.70;99.90
24468;DHT22;12634;50.852;5.676;2023-08-20T10:43:36;29.00;99.90
24468;DHT22;12634;50.852;5.676;2023-08-20T10:46:05;29.10;99.90
24468;DHT22;12634;50.852;5.676;2023-08-20T10:48:33;30.10;99.90
24468;DHT22;12634;50.852;5.676;2023-08-20T10:51:12;30.10;99.90
24468;DHT22;12634;50.852;5.676;2023-08-20T10:53:41;30.30;99.90
24468;DHT22;12634;50.852;5.676;2023-08-20T10:56:10;28.90;99.90
24468;DHT22;12634;50.852;5.676;2023-08-20T10:58:40;28.80;99.90
24468;DHT22;12634;50.852;5.676;2023-08-20T11:01:20;30.20;99.90
24468;DHT22;12634;50.852;5.676;2023-08-20T11:03:49;30.80;99.90
24468;DHT22;12634;50.852;5.676;2023-08-20T11:06:18;30.40;99.90
24468;DHT22;12634;50.852;5.676;2023-08-20T11:08:45;30.00;99.90
24468;DHT22;12634;50.852;5.676;2023-08-20T11:11:13;28.80;99.90
24468;DHT22;12634;50.852;5.676;2023-08-20T11:13:40;28.30;99.90
24468;DHT22;12634;50.852;5.676;2023-08-20T11:16:08;28.20;99.90
24468;DHT22;12634;50.852;5.676;2023-08-20T11:18:36;28.80;99.90
24468;DHT22;12634;50.852;5.676;2023-08-20T11:21:03;28.50;99.90
24468;DHT22;12634;50.852;5.676;2023-08-20T11:23:32;28.00;99.90
24468;DHT22;12634;50.852;5.676;2023-08-20T11:25:59;27.20;99.90
24468;DHT22;12634;50.852;5.676;2023-08-20T11:28:28;26.80;99.90
24468;DHT22;12634;50.852;5.676;2023-08-20T11:30:55;26.80;99.90
24468;DHT22;12634;50.852;5.676;2023-08-20T11:33:24;26.90;99.90
24468;DHT22;12634;50.852;5.676;2023-08-20T11:35:52;27.40;99.90
24468;DHT22;12634;50.852;5.676;2023-08-20T11:38:23;28.10;99.90
24468;DHT22;12634;50.852;5.676;2023-08-20T11:40:52;29.60;99.90
24468;DHT22;12634;50.852;5.676;2023-08-20T11:43:19;30.20;99.90
24468;DHT22;12634;50.852;5.676;2023-08-20T11:45:48;29.90;99.90
24468;DHT22;12634;50.852;5.676;2023-08-20T11:48:16;31.50;99.90
24468;DHT22;12634;50.852;5.676;2023-08-20T11:50:44;31.50;99.90
24468;DHT22;12634;50.852;5.676;2023-08-20T11:53:11;31.50;99.90
24468;DHT22;12634;50.852;5.676;2023-08-20T11:55:39;31.20;99.90
24468;DHT22;12634;50.852;5.676;2023-08-20T11:58:12;32.40;99.90
24468;DHT22;12634;50.852;5.676;2023-08-20T12:00:39;33.60;99.90
24468;DHT22;12634;50.852;5.676;2023-08-20T12:03:08;33.90;99.90
24468;DHT22;12634;50.852;5.676;2023-08-20T12:05:36;32.80;99.90
24468;DHT22;12634;50.852;5.676;2023-08-20T12:08:04;33.00;99.90
24468;DHT22;12634;50.852;5.676;2023-08-20T12:10:33;32.80;99.90
24468;DHT22;12634;50.852;5.676;2023-08-20T12:13:02;33.40;99.90
24468;DHT22;12634;50.852;5.676;2023-08-20T12:15:31;32.60;99.90
24468;DHT22;12634;50.852;5.676;2023-08-20T12:17:59;32.60;99.90
24468;DHT22;12634;50.852;5.676;2023-08-20T12:20:28;33.30;99.90
24468;DHT22;12634;50.852;5.676;2023-08-20T12:23:01;32.30;99.90
24468;DHT22;12634;50.852;5.676;2023-08-20T12:25:31;31.50;99.90
24468;DHT22;12634;50.852;5.676;2023-08-20T12:27:59;30.90;99.90
24468;DHT22;12634;50.852;5.676;2023-08-20T12:30:27;30.40;99.90
24468;DHT22;12634;50.852;5.676;2023-08-20T12:32:56;29.80;99.90
24468;DHT22;12634;50.852;5.676;2023-08-20T12:35:23;29.20;99.90
24468;DHT22;12634;50.852;5.676;2023-08-20T12:37:50;29.00;99.90
24468;DHT22;12634;50.852;5.676;2023-08-20T12:40:17;29.50;99.90
24468;DHT22;12634;50.852;5.676;2023-08-20T12:42:44;30.70;99.90
24468;DHT22;12634;50.852;5.676;2023-08-20T12:45:11;31.50;99.90
24468;DHT22;12634;50.852;5.676;2023-08-20T12:47:39;31.80;99.90
24468;DHT22;12634;50.852;5.676;2023-08-20T12:50:08;32.40;99.90
24468;DHT22;12634;50.852;5.676;2023-08-20T12:52:36;31.80;99.90
24468;DHT22;12634;50.852;5.676;2023-08-20T12:55:04;31.90;99.90
24468;DHT22;12634;50.852;5.676;2023-08-20T12:57:35;33.60;99.90
24468;DHT22;12634;50.852;5.676;2023-08-20T13:00:03;34.10;99.90
24468;DHT22;12634;50.852;5.676;2023-08-20T13:02:36;33.60;99.90
24468;DHT22;12634;50.852;5.676;2023-08-20T13:05:05;33.60;99.90
24468;DHT22;12634;50.852;5.676;2023-08-20T13:07:36;33.20;99.90
24468;DHT22;12634;50.852;5.676;2023-08-20T13:10:05;34.00;99.90
24468;DHT22;12634;50.852;5.676;2023-08-20T13:12:34;34.90;99.90
24468;DHT22;12634;50.852;5.676;2023-08-20T13:15:02;35.30;99.90
24468;DHT22;12634;50.852;5.676;2023-08-20T13:17:30;35.40;99.90
24468;DHT22;12634;50.852;5.676;2023-08-20T13:19:57;34.70;99.90
24468;DHT22;12634;50.852;5.676;2023-08-20T13:22:24;34.70;99.90
24468;DHT22;12634;50.852;5.676;2023-08-20T13:24:53;34.40;99.90
24468;DHT22;12634;50.852;5.676;2023-08-20T13:27:20;34.30;99.90
24468;DHT22;12634;50.852;5.676;2023-08-20T13:29:47;34.30;99.90
24468;DHT22;12634;50.852;5.676;2023-08-20T13:32:14;34.10;99.90
24468;DHT22;12634;50.852;5.676;2023-08-20T13:34:42;34.80;99.90
24468;DHT22;12634;50.852;5.676;2023-08-20T13:37:09;34.70;98.80
24468;DHT22;12634;50.852;5.676;2023-08-20T13:39:36;34.10;99.90
24468;DHT22;12634;50.852;5.676;2023-08-20T13:42:05;33.70;99.90
24468;DHT22;12634;50.852;5.676;2023-08-20T13:44:32;33.80;99.90
24468;DHT22;12634;50.852;5.676;2023-08-20T13:47:00;34.00;99.90
24468;DHT22;12634;50.852;5.676;2023-08-20T13:49:27;34.20;99.90
24468;DHT22;12634;50.852;5.676;2023-08-20T13:51:54;34.00;99.90
24468;DHT22;12634;50.852;5.676;2023-08-20T13:54:22;34.80;99.90
24468;DHT22;12634;50.852;5.676;2023-08-20T13:56:49;34.70;98.50
24468;DHT22;12634;50.852;5.676;2023-08-20T13:59:18;34.80;98.90
24468;DHT22;12634;50.852;5.676;2023-08-20T14:01:45;34.90;99.40
24468;DHT22;12634;50.852;5.676;2023-08-20T14:04:12;34.60;95.70
24468;DHT22;12634;50.852;5.676;2023-08-20T14:06:40;34.70;96.80
24468;DHT22;12634;50.852;5.676;2023-08-20T14:09:07;34.20;98.50
24468;DHT22;12634;50.852;5.676;2023-08-20T14:11:34;33.80;95.50
24468;DHT22;12634;50.852;5.676;2023-08-20T14:14:01;33.80;95.20
24468;DHT22;12634;50.852;5.676;2023-08-20T14:16:30;33.50;98.10
24468;DHT22;12634;50.852;5.676;2023-08-20T14:18:57;33.80;95.80
24468;DHT22;12634;50.852;5.676;2023-08-20T14:21:24;34.10;97.10
24468;DHT22;12634;50.852;5.676;2023-08-20T14:23:52;33.90;98.90
24468;DHT22;12634;50.852;5.676;2023-08-20T14:26:19;33.90;95.50
24468;DHT22;12634;50.852;5.676;2023-08-20T14:28:46;33.50;96.20
24468;DHT22;12634;50.852;5.676;2023-08-20T14:31:14;33.20;97.40
24468;DHT22;12634;50.852;5.676;2023-08-20T14:33:43;33.50;94.30
24468;DHT22;12634;50.852;5.676;2023-08-20T14:36:10;33.50;94.90
24468;DHT22;12634;50.852;5.676;2023-08-20T14:38:37;32.50;96.60
24468;DHT22;12634;50.852;5.676;2023-08-20T14:41:05;32.90;97.90
24468;DHT22;12634;50.852;5.676;2023-08-20T14:43:32;33.90;94.10
24468;DHT22;12634;50.852;5.676;2023-08-20T14:45:59;34.10;96.70
24468;DHT22;12634;50.852;5.676;2023-08-20T14:48:27;33.90;97.90
24468;DHT22;12634;50.852;5.676;2023-08-20T14:50:56;33.70;97.30
24468;DHT22;12634;50.852;5.676;2023-08-20T14:53:23;33.30;94.20
24468;DHT22;12634;50.852;5.676;2023-08-20T14:55:50;32.20;96.10
24468;DHT22;12634;50.852;5.676;2023-08-20T14:58:17;32.30;96.80
24468;DHT22;12634;50.852;5.676;2023-08-20T15:00:44;32.30;97.30
24468;DHT22;12634;50.852;5.676;2023-08-20T15:03:12;32.60;98.80
24468;DHT22;12634;50.852;5.676;2023-08-20T15:05:39;31.80;97.40
24468;DHT22;12634;50.852;5.676;2023-08-20T15:08:07;31.60;99.00
24468;DHT22;12634;50.852;5.676;2023-08-20T15:10:35;31.90;99.70
24468;DHT22;12634;50.852;5.676;2023-08-20T15:13:02;32.30;97.20
24468;DHT22;12634;50.852;5.676;2023-08-20T15:15:29;33.20;99.90
24468;DHT22;12634;50.852;5.676;2023-08-20T15:17:57;33.70;95.00
24468;DHT22;12634;50.852;5.676;2023-08-20T15:20:25;33.80;96.00
24468;DHT22;12634;50.852;5.676;2023-08-20T15:22:52;33.90;95.40
24468;DHT22;12634;50.852;5.676;2023-08-20T15:25:21;33.20;96.80
24468;DHT22;12634;50.852;5.676;2023-08-20T15:27:48;32.30;95.60
24468;DHT22;12634;50.852;5.676;2023-08-20T15:30:15;31.30;97.70
24468;DHT22;12634;50.852;5.676;2023-08-20T15:32:44;32.30;97.70
24468;DHT22;12634;50.852;5.676;2023-08-20T15:35:11;32.90;97.10